Time;durP1;ratioP1;P1;durP2;ratioP2;P2;SDS_P1;SDS_P2;PMS_P1;PMS_P2;Temp;Humidity;BMP_temperature;BMP_pressure;BME280_temperature;BME280_humidity;BME280_pressure;Samples;Min_cycle;Max_cycle;Signal;HPM_P1;HPM_P2
2022/11/18 15:43:35;;;;;;;25.38;17.95;;;18.00;83.90;;;;;;5066947;22;20055;-85
2022/11/18 15:46:01;;;;;;;22.73;17.10;;;17.90;84.60;;;;;;5042062;28;20041;-84
2022/11/18 15:48:26;;;;;;;25.67;17.92;;;17.90;85.10;;;;;;5041501;28;20034;-84
2022/11/18 15:50:52;;;;;;;27.33;18.58;;;17.80;85.40;;;;;;5044504;28;20030;-84
2022/11/18 15:53:17;;;;;;;25.13;18.08;;;17.80;85.70;;;;;;5010880;28;20061;-84
2022/11/18 15:55:43;;;;;;;26.33;19.02;;;17.70;85.80;;;;;;5013283;28;20026;-84
2022/11/18 15:58:09;;;;;;;24.42;18.08;;;17.70;86.10;;;;;;5023957;28;20037;-84
2022/11/18 16:00:35;;;;;;;24.27;18.65;;;17.60;86.30;;;;;;5021195;28;20036;-84
2022/11/18 16:03:00;;;;;;;24.50;19.42;;;17.70;86.60;;;;;;5010503;28;20030;-84
2022/11/18 16:05:26;;;;;;;25.65;19.67;;;17.60;86.60;;;;;;5028108;28;20030;-84
2022/11/18 16:07:52;;;;;;;25.13;19.08;;;17.60;86.70;;;;;;5010500;28;20065;-78
2022/11/18 16:13:02;;;;;;;27.83;19.48;;;17.50;87.00;;;;;;5033031;28;20133;-77
2022/11/18 16:15:42;;;;;;;25.38;17.73;;;17.40;86.90;;;;;;5019357;28;20104;-78
2022/11/18 16:18:09;;;;;;;30.55;19.55;;;17.40;86.90;;;;;;5016566;28;20540;-79
2022/11/18 16:20:35;;;;;;;26.08;19.42;;;17.40;87.20;;;;;;5016167;28;20026;-78
2022/11/18 16:23:01;;;;;;;30.40;21.10;;;17.30;87.40;;;;;;5024404;28;20060;-85
2022/11/18 16:25:27;;;;;;;25.70;20.02;;;17.20;87.70;;;;;;5026540;28;20030;-86
2022/11/18 16:27:54;;;;;;;27.60;19.95;;;17.20;88.00;;;;;;5014944;28;20351;-81
2022/11/18 16:33:05;;;;;;;27.85;19.65;;;17.10;88.50;;;;;;5016908;28;20037;-75
2022/11/18 16:35:30;;;;;;;29.98;20.27;;;17.10;88.60;;;;;;5014375;28;20029;-81
2022/11/18 16:37:56;;;;;;;31.95;20.25;;;17.00;88.80;;;;;;5023034;28;20380;-81
2022/11/18 16:40:22;;;;;;;30.00;21.48;;;17.00;89.00;;;;;;5032709;28;20104;-81
2022/11/18 16:42:51;;;;;;;29.02;20.85;;;17.00;89.20;;;;;;5027349;28;20026;-80
2022/11/18 16:45:17;;;;;;;26.83;19.48;;;16.90;89.30;;;;;;5041607;28;20041;-80
2022/11/18 16:47:44;;;;;;;30.42;20.42;;;16.90;89.40;;;;;;5036345;28;20095;-82
2022/11/18 16:50:10;;;;;;;29.85;20.02;;;16.90;89.50;;;;;;5040963;28;20112;-81
2022/11/18 16:52:36;;;;;;;28.80;20.75;;;16.80;89.50;;;;;;5046199;28;20469;-82
2022/11/18 16:55:02;;;;;;;31.42;21.55;;;16.70;89.60;;;;;;5047577;28;20040;-80
2022/11/18 16:57:27;;;;;;;28.05;21.08;;;16.70;89.70;;;;;;5042874;28;20111;-81
2022/11/18 16:59:53;;;;;;;31.00;20.90;;;16.70;90.00;;;;;;5037233;28;20036;-81
2022/11/18 17:02:19;;;;;;;31.95;21.90;;;16.60;90.00;;;;;;5041369;28;20026;-81
2022/11/18 17:04:45;;;;;;;31.23;20.85;;;16.60;90.10;;;;;;5042466;28;20022;-81
2022/11/18 17:07:11;;;;;;;31.38;20.95;;;16.60;90.10;;;;;;5040016;28;20068;-81
2022/11/18 17:09:37;;;;;;;30.75;20.88;;;16.60;90.20;;;;;;5048914;28;20111;-81
2022/11/18 17:12:03;;;;;;;28.92;21.80;;;16.50;90.20;;;;;;5053004;28;20107;-81
2022/11/18 17:14:29;;;;;;;29.30;21.42;;;16.50;90.30;;;;;;5036785;28;20063;-81
2022/11/18 17:16:55;;;;;;;30.60;21.52;;;16.50;90.40;;;;;;5050204;28;20032;-81
2022/11/18 17:19:22;;;;;;;32.20;22.65;;;16.50;90.40;;;;;;5050806;28;20358;-81
2022/11/18 17:21:49;;;;;;;31.48;22.35;;;16.40;90.40;;;;;;5053562;28;20037;-81
2022/11/18 17:24:17;;;;;;;32.30;22.17;;;16.40;90.40;;;;;;5046134;28;20030;-81
2022/11/18 17:26:43;;;;;;;35.47;21.13;;;16.40;90.50;;;;;;5047161;28;20041;-80
2022/11/18 17:29:11;;;;;;;34.33;23.02;;;16.40;90.50;;;;;;5035458;28;20029;-81
2022/11/18 17:31:37;;;;;;;31.17;21.60;;;16.30;90.50;;;;;;5052113;28;20094;-81
2022/11/18 17:34:03;;;;;;;33.92;22.45;;;16.20;90.70;;;;;;5051411;28;20094;-81
2022/11/18 17:36:29;;;;;;;35.40;24.33;;;16.30;90.70;;;;;;5041551;28;20033;-81
2022/11/18 17:38:57;;;;;;;30.83;22.13;;;16.20;90.70;;;;;;5048257;28;20021;-81
2022/11/18 17:44:11;;;;;;;31.10;23.77;;;16.20;90.80;;;;;;5044637;28;20058;-81
2022/11/18 17:46:37;;;;;;;34.95;24.65;;;16.20;90.80;;;;;;5043805;28;20043;-81
2022/11/18 17:49:06;;;;;;;33.42;23.55;;;16.10;90.90;;;;;;5046381;28;20505;-81
2022/11/18 17:51:32;;;;;;;33.45;23.70;;;16.10;90.90;;;;;;5046191;28;20104;-81
2022/11/18 17:53:57;;;;;;;32.25;24.13;;;16.10;90.90;;;;;;5023793;28;20125;-81
2022/11/18 17:56:23;;;;;;;34.13;23.92;;;16.10;90.90;;;;;;5054160;28;20060;-81
2022/11/18 17:58:50;;;;;;;35.30;23.70;;;16.10;91.00;;;;;;5051326;28;20040;-81
2022/11/18 18:01:17;;;;;;;33.40;23.88;;;16.00;91.00;;;;;;5046144;28;20031;-83
2022/11/18 18:03:43;;;;;;;32.83;22.73;;;16.00;91.00;;;;;;5051152;28;20016;-82
2022/11/18 18:06:11;;;;;;;32.42;24.00;;;16.00;91.00;;;;;;5040909;28;20040;-81
2022/11/18 18:08:36;;;;;;;34.25;24.05;;;16.00;91.00;;;;;;5049004;28;20017;-82
2022/11/18 18:11:03;;;;;;;36.67;24.60;;;15.90;91.00;;;;;;5053140;28;20071;-81
2022/11/18 18:16:12;;;;;;;31.00;22.55;;;15.90;91.10;;;;;;5034997;28;20455;-81
2022/11/18 18:18:38;;;;;;;33.63;23.58;;;15.80;91.10;;;;;;5047674;28;20021;-81
2022/11/18 18:21:04;;;;;;;32.97;23.38;;;15.80;91.20;;;;;;5048392;28;20061;-81
2022/11/18 18:23:29;;;;;;;32.20;22.67;;;15.80;91.20;;;;;;5052473;28;20032;-81
2022/11/18 18:25:59;;;;;;;32.28;23.52;;;15.80;91.20;;;;;;5049687;28;20043;-81
2022/11/18 18:28:25;;;;;;;30.27;22.35;;;15.80;91.30;;;;;;5036080;28;20017;-81
2022/11/18 18:31:03;;;;;;;32.90;23.10;;;15.70;91.30;;;;;;5066372;28;20483;-82
2022/11/18 18:33:29;;;;;;;32.53;23.50;;;15.70;91.30;;;;;;5046095;28;20386;-81
2022/11/18 18:35:59;;;;;;;33.80;23.35;;;15.70;91.40;;;;;;5034892;28;20037;-81
2022/11/18 18:38:24;;;;;;;36.70;25.05;;;15.70;91.50;;;;;;5030901;28;20411;-81
2022/11/18 18:40:51;;;;;;;34.22;25.13;;;15.60;91.40;;;;;;5051409;28;20040;-81
2022/11/18 18:43:17;;;;;;;34.10;24.58;;;15.60;91.40;;;;;;5053503;28;20030;-82
2022/11/18 18:48:26;;;;;;;42.60;25.95;;;15.60;91.50;;;;;;5049236;28;20148;-82
2022/11/18 18:50:52;;;;;;;35.65;25.85;;;15.60;91.60;;;;;;5056689;28;20108;-82
2022/11/18 18:53:18;;;;;;;36.55;24.48;;;15.50;91.60;;;;;;5043412;28;20033;-81
2022/11/18 18:55:43;;;;;;;34.25;24.13;;;15.50;91.60;;;;;;5042074;28;20095;-82
2022/11/18 18:58:09;;;;;;;34.10;25.17;;;15.50;91.60;;;;;;5038255;28;20021;-81
2022/11/18 19:00:35;;;;;;;32.33;24.88;;;15.50;91.60;;;;;;5056382;28;20056;-81
2022/11/18 19:03:00;;;;;;;40.28;25.65;;;15.50;91.70;;;;;;5062234;28;20061;-81
2022/11/18 19:05:29;;;;;;;38.30;24.05;;;15.40;91.70;;;;;;5069186;28;20484;-81
2022/11/18 19:07:54;;;;;;;37.67;26.67;;;15.40;91.70;;;;;;5061701;28;20113;-81
2022/11/18 19:10:20;;;;;;;35.63;25.13;;;15.40;91.70;;;;;;5068781;28;20107;-81
2022/11/18 19:12:50;;;;;;;34.85;24.65;;;15.40;91.80;;;;;;5062386;28;20413;-81
2022/11/18 19:15:18;;;;;;;36.08;25.35;;;15.40;91.80;;;;;;5056903;28;20037;-81
2022/11/18 19:17:43;;;;;;;38.58;27.02;;;15.30;91.80;;;;;;5056108;28;20415;-81
2022/11/18 19:22:58;;;;;;;34.63;25.13;;;15.30;91.90;;;;;;5054682;28;20461;-81
2022/11/18 19:25:24;;;;;;;35.63;24.77;;;15.30;91.90;;;;;;5059583;28;20052;-81
2022/11/18 19:27:49;;;;;;;33.05;24.50;;;15.30;91.90;;;;;;5061612;28;20126;-81
2022/11/18 19:30:15;;;;;;;35.67;23.92;;;15.30;91.90;;;;;;5058522;28;20124;-82
2022/11/18 19:32:41;;;;;;;33.55;25.25;;;15.30;92.00;;;;;;5033466;28;20371;-82
2022/11/18 19:35:08;;;;;;;36.80;25.92;;;15.20;92.10;;;;;;5042800;28;20461;-81
2022/11/18 19:37:34;;;;;;;34.42;25.15;;;15.20;92.10;;;;;;5039962;28;20091;-82
2022/11/18 19:40:03;;;;;;;36.20;25.48;;;15.30;92.10;;;;;;5034763;28;20120;-82
2022/11/18 19:42:35;;;;;;;33.47;25.33;;;15.20;92.10;;;;;;5045968;28;20053;-82
2022/11/18 19:45:04;;;;;;;35.45;24.95;;;15.20;92.10;;;;;;5051491;28;20067;-82
2022/11/18 19:47:29;;;;;;;37.67;26.67;;;15.20;92.20;;;;;;5050516;28;20037;-82
2022/11/18 19:49:55;;;;;;;37.05;25.73;;;15.20;92.30;;;;;;5054443;28;20028;-81
2022/11/18 19:52:21;;;;;;;39.50;26.80;;;15.20;92.30;;;;;;5022145;28;20335;-82
2022/11/18 19:54:46;;;;;;;38.63;27.80;;;15.20;92.30;;;;;;5044979;28;20068;-81
2022/11/18 19:57:12;;;;;;;36.20;25.77;;;15.20;92.30;;;;;;5046575;28;20032;-82
2022/11/18 19:59:39;;;;;;;37.10;26.08;;;15.20;92.20;;;;;;5046440;28;20689;-81
2022/11/18 20:02:05;;;;;;;33.53;23.83;;;15.20;92.30;;;;;;5052473;28;20079;-81
2022/11/18 20:04:31;;;;;;;36.20;25.30;;;15.20;92.30;;;;;;5059870;28;20032;-75
2022/11/18 20:06:56;;;;;;;36.25;25.65;;;15.20;92.30;;;;;;5053085;28;20029;-74
2022/11/18 20:09:24;;;;;;;35.22;24.10;;;15.10;92.30;;;;;;5063878;28;20029;-75
2022/11/18 20:11:50;;;;;;;35.35;24.80;;;15.10;92.30;;;;;;5044017;28;20508;-75
2022/11/18 20:14:15;;;;;;;34.88;24.95;;;15.20;92.30;;;;;;5061353;28;20035;-75
2022/11/18 20:16:41;;;;;;;36.17;25.33;;;15.10;92.30;;;;;;5060626;28;20399;-76
2022/11/18 20:19:12;;;;;;;35.20;25.67;;;15.10;92.40;;;;;;5065138;28;20431;-75
2022/11/18 20:21:38;;;;;;;39.33;27.38;;;15.00;92.40;;;;;;5056153;28;20036;-75
2022/11/18 20:24:05;;;;;;;32.97;24.45;;;15.10;92.40;;;;;;5043061;28;20128;-75
2022/11/18 20:26:36;;;;;;;38.47;26.58;;;15.10;92.40;;;;;;5039518;28;20033;-75
2022/11/18 20:29:03;;;;;;;34.55;25.65;;;15.10;92.50;;;;;;5038647;28;20108;-75
2022/11/18 20:31:31;;;;;;;37.20;25.63;;;15.00;92.40;;;;;;5052137;28;20045;-75
2022/11/18 20:33:57;;;;;;;38.80;25.20;;;15.00;92.40;;;;;;5044147;28;20037;-75
2022/11/18 20:36:26;;;;;;;36.65;26.73;;;15.00;92.50;;;;;;5044391;28;20029;-75
2022/11/18 20:39:00;;;;;;;37.20;25.95;;;15.00;92.50;;;;;;5052807;28;20436;-75
2022/11/18 20:41:29;;;;;;;36.20;27.02;;;15.00;92.50;;;;;;5044223;28;20571;-75
2022/11/18 20:43:55;;;;;;;41.72;25.90;;;15.00;92.60;;;;;;5043106;28;20017;-75
2022/11/18 20:46:21;;;;;;;40.67;27.42;;;15.00;92.70;;;;;;5056587;28;20041;-75
2022/11/18 20:48:47;;;;;;;38.55;26.20;;;15.00;92.70;;;;;;5064245;28;20062;-75
2022/11/18 20:51:17;;;;;;;36.17;27.23;;;15.00;92.80;;;;;;5048400;28;20029;-75
2022/11/18 20:53:43;;;;;;;40.83;27.48;;;15.00;92.80;;;;;;5066966;28;20353;-75
2022/11/18 20:56:15;;;;;;;39.08;28.00;;;15.00;92.80;;;;;;5023844;28;20033;-75
2022/11/18 20:58:41;;;;;;;43.10;28.00;;;15.00;92.80;;;;;;5037266;28;20151;-74
2022/11/18 21:01:22;;;;;;;41.42;27.33;;;15.10;92.70;;;;;;5038834;28;20107;-75
2022/11/18 21:03:53;;;;;;;40.78;28.45;;;15.10;92.80;;;;;;5033265;28;20033;-75
2022/11/18 21:06:21;;;;;;;41.67;27.58;;;15.00;92.70;;;;;;5032713;28;20568;-74
2022/11/18 21:08:47;;;;;;;38.22;26.90;;;15.00;92.80;;;;;;5028806;28;20037;-74
2022/11/18 21:11:13;;;;;;;37.75;26.98;;;15.00;93.00;;;;;;5022866;28;20029;-75
2022/11/18 21:16:24;;;;;;;35.60;26.67;;;15.00;92.80;;;;;;5052872;28;20470;-74
2022/11/18 21:18:50;;;;;;;35.95;26.50;;;15.00;92.80;;;;;;5042544;28;20029;-74
2022/11/18 21:24:01;;;;;;;42.80;28.77;;;15.00;92.90;;;;;;5061946;28;20079;-75
2022/11/18 21:26:29;;;;;;;33.95;24.95;;;15.00;92.90;;;;;;5029514;28;20394;-75
2022/11/18 21:28:58;;;;;;;38.58;25.83;;;15.00;92.90;;;;;;5046137;28;20071;-75
2022/11/18 21:31:25;;;;;;;37.35;26.20;;;15.00;93.00;;;;;;5036155;28;20028;-75
2022/11/18 21:33:52;;;;;;;35.95;25.52;;;15.00;93.00;;;;;;5035648;28;20087;-75
2022/11/18 21:36:20;;;;;;;35.67;25.30;;;15.00;93.00;;;;;;5043390;28;20017;-75
2022/11/18 21:38:46;;;;;;;35.03;25.30;;;15.00;93.00;;;;;;5048868;28;20026;-74
2022/11/18 21:41:13;;;;;;;34.05;25.17;;;15.00;93.00;;;;;;5046458;28;20057;-83
2022/11/18 21:43:39;;;;;;;35.08;25.38;;;15.00;93.00;;;;;;5050297;28;20025;-74
2022/11/18 21:46:14;;;;;;;35.20;24.20;;;15.00;93.00;;;;;;5038344;28;20111;-75
2022/11/18 21:48:40;;;;;;;35.35;25.02;;;15.00;93.00;;;;;;5047520;28;20469;-78
2022/11/18 21:51:09;;;;;;;35.45;25.02;;;14.90;93.00;;;;;;5042553;28;20484;-75
2022/11/18 21:53:35;;;;;;;37.83;25.52;;;14.90;93.00;;;;;;5036653;28;20392;-76
2022/11/18 21:56:10;;;;;;;37.30;26.27;;;14.90;93.00;;;;;;5034516;28;20089;-79
2022/11/18 21:58:36;;;;;;;37.50;25.58;;;14.90;93.00;;;;;;5042339;28;20025;-78
2022/11/18 22:01:09;;;;;;;33.30;24.05;;;14.90;93.00;;;;;;5038076;28;20033;-76
2022/11/18 22:03:40;;;;;;;36.95;25.55;;;14.90;93.00;;;;;;5048125;28;20100;-82
2022/11/18 22:06:07;;;;;;;36.45;24.92;;;14.90;93.00;;;;;;5039986;28;20021;-81
2022/11/18 22:08:37;;;;;;;33.13;25.00;;;14.90;93.00;;;;;;5035171;28;20056;-83
2022/11/18 22:11:04;;;;;;;37.17;26.17;;;14.90;93.10;;;;;;5049277;28;20125;-83
2022/11/18 22:13:30;;;;;;;35.70;25.42;;;14.90;93.10;;;;;;5040253;28;20035;-83
2022/11/18 22:16:01;;;;;;;38.70;27.17;;;14.90;93.10;;;;;;5049273;28;20116;-82
2022/11/18 22:18:32;;;;;;;37.17;25.60;;;14.90;93.10;;;;;;5042161;28;20029;-81
2022/11/18 22:21:02;;;;;;;35.47;24.85;;;14.90;93.10;;;;;;5046892;28;20127;-83
2022/11/18 22:23:29;;;;;;;34.58;24.58;;;14.90;93.00;;;;;;5051141;28;20075;-82
2022/11/18 22:26:07;;;;;;;40.22;26.33;;;14.90;93.10;;;;;;5044715;28;20059;-77
2022/11/18 22:28:34;;;;;;;37.00;26.00;;;14.90;93.10;;;;;;5046117;28;20370;-76
2022/11/18 22:31:04;;;;;;;38.78;27.70;;;14.80;93.10;;;;;;5039915;28;20106;-82
2022/11/18 22:33:31;;;;;;;;;;;14.80;93.10;;;;;;5036372;28;20213;-82
2022/11/18 22:36:05;;;;;;;32.95;23.63;;;14.90;93.10;;;;;;5042355;28;20018;-83
2022/11/18 22:38:34;;;;;;;38.85;25.52;;;14.80;93.10;;;;;;5036364;28;20095;-82
2022/11/18 22:41:06;;;;;;;35.97;26.30;;;14.80;93.10;;;;;;5028150;28;20125;-76
2022/11/18 22:43:33;;;;;;;38.47;25.65;;;14.80;93.10;;;;;;5043294;28;20094;-74
2022/11/18 22:46:05;;;;;;;35.92;25.65;;;14.80;93.10;;;;;;5043553;28;20125;-74
2022/11/18 22:48:31;;;;;;;39.50;26.92;;;14.80;93.10;;;;;;5047359;28;20029;-80
2022/11/18 22:51:04;;;;;;;36.72;25.92;;;14.80;93.10;;;;;;5047787;28;20108;-80
2022/11/18 22:53:31;;;;;;;36.75;25.73;;;14.70;93.10;;;;;;5045273;28;20029;-79
2022/11/18 22:56:05;;;;;;;35.22;25.38;;;14.70;93.20;;;;;;5037860;28;20355;-79
2022/11/18 22:58:31;;;;;;;38.55;25.73;;;14.70;93.20;;;;;;5047134;28;20033;-80
2022/11/18 23:01:01;;;;;;;36.10;25.88;;;14.70;93.20;;;;;;5041010;28;20029;-80
2022/11/18 23:03:27;;;;;;;35.45;24.98;;;14.70;93.20;;;;;;5051004;28;20076;-80
2022/11/18 23:05:52;;;;;;;42.20;27.13;;;14.70;93.20;;;;;;5039672;28;20148;-80
2022/11/18 23:08:18;;;;;;;35.80;25.08;;;14.70;93.30;;;;;;5045147;28;20122;-80
2022/11/18 23:10:44;;;;;;;33.97;24.52;;;14.70;93.20;;;;;;5048135;28;20083;-80
2022/11/18 23:15:58;;;;;;;49.20;34.47;;;14.50;93.10;;;;;;5049462;28;20109;-75
2022/11/18 23:18:27;;;;;;;34.88;24.60;;;14.20;93.00;;;;;;5028460;28;20029;-75
2022/11/18 23:21:01;;;;;;;42.70;30.10;;;14.10;93.30;;;;;;5036821;28;20025;-75
2022/11/18 23:23:28;;;;;;;39.60;25.40;;;14.00;93.20;;;;;;5049342;28;20275;-75
2022/11/18 23:25:54;;;;;;;32.15;24.75;;;14.00;93.30;;;;;;5040389;28;20395;-75
2022/11/18 23:28:19;;;;;;;44.58;29.80;;;13.80;93.30;;;;;;5036658;28;20111;-75
2022/11/18 23:30:45;;;;;;;37.05;25.23;;;13.80;93.40;;;;;;5024164;28;20022;-75
2022/11/18 23:33:11;;;;;;;36.00;24.15;;;13.70;93.70;;;;;;5037007;28;20472;-75
2022/11/18 23:35:36;;;;;;;43.42;28.10;;;13.60;93.50;;;;;;5024585;28;20029;-75
2022/11/18 23:38:02;;;;;;;45.75;30.92;;;13.60;93.50;;;;;;5042777;28;20110;-75
2022/11/18 23:40:29;;;;;;;38.38;27.23;;;13.40;93.70;;;;;;5023693;28;20508;-76
2022/11/18 23:42:55;;;;;;;42.20;27.17;;;13.40;93.80;;;;;;5048017;28;20040;-76
2022/11/18 23:45:21;;;;;;;31.48;22.55;;;13.30;93.80;;;;;;5035811;28;20044;-75
2022/11/18 23:47:47;;;;;;;33.70;24.17;;;13.30;93.80;;;;;;5040507;28;20028;-76
2022/11/18 23:50:13;;;;;;;47.05;29.20;;;13.20;93.90;;;;;;5041546;28;20040;-76
2022/11/18 23:52:40;;;;;;;34.00;24.55;;;12.90;94.00;;;;;;5037832;28;20394;-76
2022/11/18 23:55:07;;;;;;;33.85;24.80;;;12.90;94.10;;;;;;5034119;28;20033;-76
2022/11/18 23:57:33;;;;;;;26.92;20.13;;;12.90;94.00;;;;;;5033388;28;20053;-76
2022/11/18 23:59:59;;;;;;;28.92;20.80;;;13.00;93.90;;;;;;5038709;28;20060;-75
